Rocky Butte, Washington
Current Conditions -  °F | °C
As of 4:07 AM on Wednesday 28 Jan 2015 (Local Time) from KOMK Reporting Station
Haze Haze  
Wind Chill:   Ceiling: 600
Heat Index:   Visibility: 3mi
Dew Point:   Wind: 3mph
Humidity: 96%   Direction: 270°W
Pressure: 30.28"   Gusts: NA
Location:  48.2133°N, 119.829°W
Report Text: KOMK 281207Z AUTO 27003KT 3SM BR OVC006 02/01 A3028 RMK AO2 T00170011
Loading
Personal Weather Stations






























Interactive Weather Map New forecast layout! Learn more

10-Day Weather Forecast

Advertisements
Track Severe Weather on mobile